sensor_id;sensor_type;location;lat;lon;timestamp;P1;durP1;ratioP1;P2;durP2;ratioP2
45326;SDS011;31062;49.678;24.560;2023-04-15T00:01:14;8.05;;;5.15;;
45326;SDS011;31062;49.678;24.560;2023-04-15T00:04:03;3.85;;;3.25;;
45326;SDS011;31062;49.678;24.560;2023-04-15T00:06:50;6.20;;;4.50;;
45326;SDS011;31062;49.678;24.560;2023-04-15T00:09:37;8.07;;;5.07;;
45326;SDS011;31062;49.678;24.560;2023-04-15T00:12:26;9.10;;;4.60;;
45326;SDS011;31062;49.678;24.560;2023-04-15T00:15:12;8.50;;;4.05;;
45326;SDS011;31062;49.678;24.560;2023-04-15T00:17:57;5.13;;;4.38;;
45326;SDS011;31062;49.678;24.560;2023-04-15T00:20:43;5.70;;;4.57;;
45326;SDS011;31062;49.678;24.560;2023-04-15T00:23:28;6.65;;;3.90;;
45326;SDS011;31062;49.678;24.560;2023-04-15T00:26:15;7.47;;;4.10;;
45326;SDS011;31062;49.678;24.560;2023-04-15T00:29:01;9.40;;;4.38;;
45326;SDS011;31062;49.678;24.560;2023-04-15T00:31:47;6.05;;;4.70;;
45326;SDS011;31062;49.678;24.560;2023-04-15T00:34:32;7.30;;;5.15;;
45326;SDS011;31062;49.678;24.560;2023-04-15T00:37:18;8.55;;;4.63;;
45326;SDS011;31062;49.678;24.560;2023-04-15T00:40:04;7.38;;;4.97;;
45326;SDS011;31062;49.678;24.560;2023-04-15T00:42:51;9.95;;;5.43;;
45326;SDS011;31062;49.678;24.560;2023-04-15T00:45:37;6.93;;;4.38;;
45326;SDS011;31062;49.678;24.560;2023-04-15T00:48:22;5.80;;;4.40;;
45326;SDS011;31062;49.678;24.560;2023-04-15T00:51:08;8.00;;;4.78;;
45326;SDS011;31062;49.678;24.560;2023-04-15T00:53:54;6.30;;;5.05;;
45326;SDS011;31062;49.678;24.560;2023-04-15T00:56:40;6.93;;;4.75;;
45326;SDS011;31062;49.678;24.560;2023-04-15T00:59:27;6.55;;;4.30;;
45326;SDS011;31062;49.678;24.560;2023-04-15T01:02:13;6.30;;;5.10;;
45326;SDS011;31062;49.678;24.560;2023-04-15T01:04:59;6.35;;;5.13;;
45326;SDS011;31062;49.678;24.560;2023-04-15T01:07:45;7.28;;;4.53;;
45326;SDS011;31062;49.678;24.560;2023-04-15T01:10:32;5.22;;;4.72;;
45326;SDS011;31062;49.678;24.560;2023-04-15T01:13:17;8.48;;;4.40;;
45326;SDS011;31062;49.678;24.560;2023-04-15T01:16:03;9.18;;;4.75;;
45326;SDS011;31062;49.678;24.560;2023-04-15T01:18:49;7.45;;;4.80;;
45326;SDS011;31062;49.678;24.560;2023-04-15T01:21:36;8.68;;;4.95;;
45326;SDS011;31062;49.678;24.560;2023-04-15T01:24:23;6.30;;;3.85;;
45326;SDS011;31062;49.678;24.560;2023-04-15T01:27:12;11.00;;;4.68;;
45326;SDS011;31062;49.678;24.560;2023-04-15T01:29:58;7.28;;;4.35;;
45326;SDS011;31062;49.678;24.560;2023-04-15T01:32:43;5.95;;;4.53;;
45326;SDS011;31062;49.678;24.560;2023-04-15T01:35:28;5.90;;;3.75;;
45326;SDS011;31062;49.678;24.560;2023-04-15T01:38:14;8.75;;;4.80;;
45326;SDS011;31062;49.678;24.560;2023-04-15T01:40:59;6.05;;;4.30;;
45326;SDS011;31062;49.678;24.560;2023-04-15T01:43:45;4.95;;;3.95;;
45326;SDS011;31062;49.678;24.560;2023-04-15T01:46:30;8.38;;;4.50;;
45326;SDS011;31062;49.678;24.560;2023-04-15T01:49:17;6.88;;;3.72;;
45326;SDS011;31062;49.678;24.560;2023-04-15T01:52:02;6.00;;;4.53;;
45326;SDS011;31062;49.678;24.560;2023-04-15T01:54:48;6.65;;;5.00;;
45326;SDS011;31062;49.678;24.560;2023-04-15T01:57:33;8.07;;;4.57;;
45326;SDS011;31062;49.678;24.560;2023-04-15T02:00:19;5.43;;;4.47;;
45326;SDS011;31062;49.678;24.560;2023-04-15T02:03:05;7.80;;;4.32;;
45326;SDS011;31062;49.678;24.560;2023-04-15T02:05:50;4.95;;;4.13;;
45326;SDS011;31062;49.678;24.560;2023-04-15T02:08:36;4.63;;;3.35;;
45326;SDS011;31062;49.678;24.560;2023-04-15T02:11:24;6.25;;;5.03;;
45326;SDS011;31062;49.678;24.560;2023-04-15T02:14:10;6.30;;;4.95;;
45326;SDS011;31062;49.678;24.560;2023-04-15T02:16:55;10.07;;;4.10;;
45326;SDS011;31062;49.678;24.560;2023-04-15T02:19:41;6.75;;;4.20;;
45326;SDS011;31062;49.678;24.560;2023-04-15T02:22:26;8.18;;;4.43;;
45326;SDS011;31062;49.678;24.560;2023-04-15T02:25:14;4.18;;;3.63;;
45326;SDS011;31062;49.678;24.560;2023-04-15T02:28:01;6.75;;;3.63;;
45326;SDS011;31062;49.678;24.560;2023-04-15T02:30:47;6.13;;;4.70;;
45326;SDS011;31062;49.678;24.560;2023-04-15T02:33:37;12.10;;;4.50;;
45326;SDS011;31062;49.678;24.560;2023-04-15T02:36:23;5.18;;;3.45;;
45326;SDS011;31062;49.678;24.560;2023-04-15T02:39:08;4.00;;;3.60;;
45326;SDS011;31062;49.678;24.560;2023-04-15T02:41:54;11.00;;;4.47;;
45326;SDS011;31062;49.678;24.560;2023-04-15T02:44:39;7.93;;;4.07;;
45326;SDS011;31062;49.678;24.560;2023-04-15T02:47:24;6.90;;;4.10;;
45326;SDS011;31062;49.678;24.560;2023-04-15T02:50:11;5.47;;;3.42;;
45326;SDS011;31062;49.678;24.560;2023-04-15T02:52:59;5.20;;;4.03;;
45326;SDS011;31062;49.678;24.560;2023-04-15T02:55:46;8.15;;;4.50;;
45326;SDS011;31062;49.678;24.560;2023-04-15T02:58:32;6.80;;;4.13;;
45326;SDS011;31062;49.678;24.560;2023-04-15T03:01:18;6.47;;;4.20;;
45326;SDS011;31062;49.678;24.560;2023-04-15T03:04:05;6.78;;;4.72;;
45326;SDS011;31062;49.678;24.560;2023-04-15T03:06:53;6.65;;;3.95;;
45326;SDS011;31062;49.678;24.560;2023-04-15T03:09:39;5.53;;;3.63;;
45326;SDS011;31062;49.678;24.560;2023-04-15T03:12:25;5.97;;;4.10;;
45326;SDS011;31062;49.678;24.560;2023-04-15T03:15:13;10.43;;;3.97;;
45326;SDS011;31062;49.678;24.560;2023-04-15T03:18:03;6.13;;;3.70;;
45326;SDS011;31062;49.678;24.560;2023-04-15T03:20:48;4.43;;;3.72;;
45326;SDS011;31062;49.678;24.560;2023-04-15T03:23:34;8.27;;;4.53;;
45326;SDS011;31062;49.678;24.560;2023-04-15T03:26:29;6.03;;;4.32;;
45326;SDS011;31062;49.678;24.560;2023-04-15T03:29:19;4.32;;;3.92;;
45326;SDS011;31062;49.678;24.560;2023-04-15T03:32:05;5.45;;;4.20;;
45326;SDS011;31062;49.678;24.560;2023-04-15T03:34:51;6.90;;;4.43;;
45326;SDS011;31062;49.678;24.560;2023-04-15T03:37:37;6.13;;;4.00;;
45326;SDS011;31062;49.678;24.560;2023-04-15T03:40:22;7.45;;;3.70;;
45326;SDS011;31062;49.678;24.560;2023-04-15T03:43:07;7.50;;;3.95;;
45326;SDS011;31062;49.678;24.560;2023-04-15T03:45:53;4.50;;;3.83;;
45326;SDS011;31062;49.678;24.560;2023-04-15T03:48:38;6.18;;;4.13;;
45326;SDS011;31062;49.678;24.560;2023-04-15T03:51:24;6.10;;;4.10;;
45326;SDS011;31062;49.678;24.560;2023-04-15T03:54:10;7.32;;;4.72;;
45326;SDS011;31062;49.678;24.560;2023-04-15T03:56:56;6.07;;;4.80;;
45326;SDS011;31062;49.678;24.560;2023-04-15T03:59:42;7.25;;;5.07;;
45326;SDS011;31062;49.678;24.560;2023-04-15T04:02:28;8.20;;;3.53;;
45326;SDS011;31062;49.678;24.560;2023-04-15T04:05:13;4.43;;;4.03;;
45326;SDS011;31062;49.678;24.560;2023-04-15T04:07:59;5.25;;;3.67;;
45326;SDS011;31062;49.678;24.560;2023-04-15T04:10:44;4.53;;;3.88;;
45326;SDS011;31062;49.678;24.560;2023-04-15T04:13:30;4.78;;;3.28;;
45326;SDS011;31062;49.678;24.560;2023-04-15T04:16:15;3.13;;;2.90;;
45326;SDS011;31062;49.678;24.560;2023-04-15T04:19:01;4.90;;;3.10;;
45326;SDS011;31062;49.678;24.560;2023-04-15T04:21:47;3.97;;;3.10;;
45326;SDS011;31062;49.678;24.560;2023-04-15T04:24:33;3.28;;;2.97;;
45326;SDS011;31062;49.678;24.560;2023-04-15T04:27:18;4.68;;;3.22;;
45326;SDS011;31062;49.678;24.560;2023-04-15T04:30:04;6.03;;;2.42;;
45326;SDS011;31062;49.678;24.560;2023-04-15T04:32:50;4.22;;;2.60;;
45326;SDS011;31062;49.678;24.560;2023-04-15T04:35:40;2.60;;;2.38;;
45326;SDS011;31062;49.678;24.560;2023-04-15T04:38:25;3.08;;;2.67;;
45326;SDS011;31062;49.678;24.560;2023-04-15T04:41:11;2.97;;;2.67;;
45326;SDS011;31062;49.678;24.560;2023-04-15T04:43:56;1.95;;;1.85;;
45326;SDS011;31062;49.678;24.560;2023-04-15T04:46:42;3.20;;;2.30;;
45326;SDS011;31062;49.678;24.560;2023-04-15T04:49:27;3.20;;;1.60;;
45326;SDS011;31062;49.678;24.560;2023-04-15T04:52:13;1.67;;;1.52;;
45326;SDS011;31062;49.678;24.560;2023-04-15T04:54:59;1.10;;;1.00;;
45326;SDS011;31062;49.678;24.560;2023-04-15T04:58:03;1.13;;;0.95;;
45326;SDS011;31062;49.678;24.560;2023-04-15T05:00:48;3.75;;;0.98;;
45326;SDS011;31062;49.678;24.560;2023-04-15T05:03:34;1.35;;;1.15;;
45326;SDS011;31062;49.678;24.560;2023-04-15T05:06:25;0.90;;;0.80;;
45326;SDS011;31062;49.678;24.560;2023-04-15T05:09:28;1.67;;;0.70;;
45326;SDS011;31062;49.678;24.560;2023-04-15T05:12:16;1.25;;;0.80;;
45326;SDS011;31062;49.678;24.560;2023-04-15T05:15:02;2.38;;;0.60;;
45326;SDS011;31062;49.678;24.560;2023-04-15T05:17:49;1.10;;;1.10;;
45326;SDS011;31062;49.678;24.560;2023-04-15T05:20:35;1.05;;;1.00;;
45326;SDS011;31062;49.678;24.560;2023-04-15T05:23:20;0.80;;;0.80;;
45326;SDS011;31062;49.678;24.560;2023-04-15T05:26:06;1.60;;;0.88;;
45326;SDS011;31062;49.678;24.560;2023-04-15T05:28:52;2.33;;;1.67;;
45326;SDS011;31062;49.678;24.560;2023-04-15T05:31:37;1.58;;;1.48;;
45326;SDS011;31062;49.678;24.560;2023-04-15T05:34:23;2.95;;;1.48;;
45326;SDS011;31062;49.678;24.560;2023-04-15T05:37:09;1.38;;;1.25;;
45326;SDS011;31062;49.678;24.560;2023-04-15T05:39:55;1.60;;;1.25;;
45326;SDS011;31062;49.678;24.560;2023-04-15T05:42:41;2.63;;;1.10;;
45326;SDS011;31062;49.678;24.560;2023-04-15T05:45:26;3.05;;;1.23;;
45326;SDS011;31062;49.678;24.560;2023-04-15T05:48:12;1.58;;;1.20;;
45326;SDS011;31062;49.678;24.560;2023-04-15T05:50:57;1.50;;;1.40;;
45326;SDS011;31062;49.678;24.560;2023-04-15T05:53:43;3.85;;;1.40;;
45326;SDS011;31062;49.678;24.560;2023-04-15T05:56:29;0.85;;;0.77;;
45326;SDS011;31062;49.678;24.560;2023-04-15T05:59:15;4.97;;;2.25;;
45326;SDS011;31062;49.678;24.560;2023-04-15T06:02:01;4.30;;;2.28;;
45326;SDS011;31062;49.678;24.560;2023-04-15T06:04:46;2.80;;;2.28;;
45326;SDS011;31062;49.678;24.560;2023-04-15T06:07:32;2.03;;;1.70;;
45326;SDS011;31062;49.678;24.560;2023-04-15T06:10:18;3.13;;;2.10;;
45326;SDS011;31062;49.678;24.560;2023-04-15T06:13:03;2.47;;;2.05;;
45326;SDS011;31062;49.678;24.560;2023-04-15T06:15:49;1.67;;;1.40;;
45326;SDS011;31062;49.678;24.560;2023-04-15T06:18:35;1.77;;;0.77;;
45326;SDS011;31062;49.678;24.560;2023-04-15T06:21:20;5.10;;;1.27;;
45326;SDS011;31062;49.678;24.560;2023-04-15T06:24:06;1.27;;;1.17;;
45326;SDS011;31062;49.678;24.560;2023-04-15T06:26:51;3.67;;;1.00;;
45326;SDS011;31062;49.678;24.560;2023-04-15T06:29:36;0.88;;;0.88;;
45326;SDS011;31062;49.678;24.560;2023-04-15T06:32:22;1.40;;;0.70;;
45326;SDS011;31062;49.678;24.560;2023-04-15T06:35:07;1.63;;;0.90;;
45326;SDS011;31062;49.678;24.560;2023-04-15T06:37:53;1.08;;;0.88;;
45326;SDS011;31062;49.678;24.560;2023-04-15T06:40:39;1.20;;;1.10;;
45326;SDS011;31062;49.678;24.560;2023-04-15T06:43:24;1.45;;;1.00;;
45326;SDS011;31062;49.678;24.560;2023-04-15T06:46:10;1.35;;;1.25;;
45326;SDS011;31062;49.678;24.560;2023-04-15T06:48:55;0.90;;;0.90;;
45326;SDS011;31062;49.678;24.560;2023-04-15T06:51:41;1.67;;;0.85;;
45326;SDS011;31062;49.678;24.560;2023-04-15T06:54:27;1.42;;;1.33;;
45326;SDS011;31062;49.678;24.560;2023-04-15T06:57:12;1.10;;;1.00;;
45326;SDS011;31062;49.678;24.560;2023-04-15T06:59:57;1.88;;;1.20;;
45326;SDS011;31062;49.678;24.560;2023-04-15T07:02:43;1.90;;;1.30;;
45326;SDS011;31062;49.678;24.560;2023-04-15T07:05:29;2.83;;;1.20;;
45326;SDS011;31062;49.678;24.560;2023-04-15T07:08:17;1.27;;;1.10;;
45326;SDS011;31062;49.678;24.560;2023-04-15T07:11:06;1.30;;;1.20;;
45326;SDS011;31062;49.678;24.560;2023-04-15T07:13:51;1.10;;;1.00;;
45326;SDS011;31062;49.678;24.560;2023-04-15T07:16:36;1.45;;;1.15;;
45326;SDS011;31062;49.678;24.560;2023-04-15T07:19:22;6.65;;;2.45;;
45326;SDS011;31062;49.678;24.560;2023-04-15T07:22:07;1.42;;;1.33;;
45326;SDS011;31062;49.678;24.560;2023-04-15T07:24:53;1.80;;;1.38;;
45326;SDS011;31062;49.678;24.560;2023-04-15T07:27:38;3.72;;;2.67;;
45326;SDS011;31062;49.678;24.560;2023-04-15T07:30:28;1.30;;;1.17;;
45326;SDS011;31062;49.678;24.560;2023-04-15T07:33:20;1.17;;;0.90;;
45326;SDS011;31062;49.678;24.560;2023-04-15T07:36:06;1.35;;;1.25;;
45326;SDS011;31062;49.678;24.560;2023-04-15T07:38:55;1.48;;;1.30;;
45326;SDS011;31062;49.678;24.560;2023-04-15T07:41:42;1.52;;;1.42;;
45326;SDS011;31062;49.678;24.560;2023-04-15T07:44:27;1.85;;;1.40;;
45326;SDS011;31062;49.678;24.560;2023-04-15T07:47:17;1.02;;;0.93;;
45326;SDS011;31062;49.678;24.560;2023-04-15T07:50:02;2.47;;;1.27;;
45326;SDS011;31062;49.678;24.560;2023-04-15T07:52:52;0.75;;;0.75;;
45326;SDS011;31062;49.678;24.560;2023-04-15T07:55:38;1.90;;;1.33;;
45326;SDS011;31062;49.678;24.560;2023-04-15T07:58:24;1.40;;;0.85;;
45326;SDS011;31062;49.678;24.560;2023-04-15T08:01:15;1.23;;;0.98;;
45326;SDS011;31062;49.678;24.560;2023-04-15T08:04:00;1.10;;;1.00;;
45326;SDS011;31062;49.678;24.560;2023-04-15T08:06:47;1.52;;;1.17;;
45326;SDS011;31062;49.678;24.560;2023-04-15T08:09:34;3.25;;;1.00;;
45326;SDS011;31062;49.678;24.560;2023-04-15T08:12:22;1.10;;;1.05;;
45326;SDS011;31062;49.678;24.560;2023-04-15T08:15:08;1.15;;;1.05;;
45326;SDS011;31062;49.678;24.560;2023-04-15T08:17:53;1.23;;;1.13;;
45326;SDS011;31062;49.678;24.560;2023-04-15T08:20:39;2.45;;;1.00;;
45326;SDS011;31062;49.678;24.560;2023-04-15T08:23:24;0.93;;;0.93;;
45326;SDS011;31062;49.678;24.560;2023-04-15T08:26:10;2.50;;;1.40;;
45326;SDS011;31062;49.678;24.560;2023-04-15T08:28:56;1.10;;;1.00;;
45326;SDS011;31062;49.678;24.560;2023-04-15T08:31:42;3.15;;;1.98;;
45326;SDS011;31062;49.678;24.560;2023-04-15T08:34:28;1.33;;;1.23;;
45326;SDS011;31062;49.678;24.560;2023-04-15T08:37:16;0.75;;;0.75;;
45326;SDS011;31062;49.678;24.560;2023-04-15T08:40:27;1.02;;;0.93;;
45326;SDS011;31062;49.678;24.560;2023-04-15T08:43:21;0.80;;;0.80;;
45326;SDS011;31062;49.678;24.560;2023-04-15T08:46:12;0.90;;;0.70;;
45326;SDS011;31062;49.678;24.560;2023-04-15T08:48:59;0.77;;;0.77;;
45326;SDS011;31062;49.678;24.560;2023-04-15T08:51:48;0.98;;;0.73;;
45326;SDS011;31062;49.678;24.560;2023-04-15T08:54:34;0.70;;;0.70;;
45326;SDS011;31062;49.678;24.560;2023-04-15T08:57:24;0.80;;;0.70;;
45326;SDS011;31062;49.678;24.560;2023-04-15T09:00:13;1.13;;;0.82;;
45326;SDS011;31062;49.678;24.560;2023-04-15T09:02:59;1.77;;;1.25;;
45326;SDS011;31062;49.678;24.560;2023-04-15T09:05:46;2.33;;;0.90;;
45326;SDS011;31062;49.678;24.560;2023-04-15T09:08:33;1.40;;;0.65;;
45326;SDS011;31062;49.678;24.560;2023-04-15T09:11:20;1.67;;;1.55;;
45326;SDS011;31062;49.678;24.560;2023-04-15T09:14:06;0.68;;;0.68;;
45326;SDS011;31062;49.678;24.560;2023-04-15T09:16:56;0.47;;;0.47;;
45326;SDS011;31062;49.678;24.560;2023-04-15T09:19:46;1.38;;;0.57;;
45326;SDS011;31062;49.678;24.560;2023-04-15T09:22:32;0.82;;;0.80;;
45326;SDS011;31062;49.678;24.560;2023-04-15T09:28:06;2.38;;;0.45;;
45326;SDS011;31062;49.678;24.560;2023-04-15T09:30:56;0.70;;;0.60;;
45326;SDS011;31062;49.678;24.560;2023-04-15T09:33:53;0.52;;;0.30;;
45326;SDS011;31062;49.678;24.560;2023-04-15T09:39:48;3.03;;;0.68;;
45326;SDS011;31062;49.678;24.560;2023-04-15T09:42:35;0.88;;;0.88;;
45326;SDS011;31062;49.678;24.560;2023-04-15T09:45:22;4.20;;;1.23;;
45326;SDS011;31062;49.678;24.560;2023-04-15T09:48:18;1.15;;;1.00;;
45326;SDS011;31062;49.678;24.560;2023-04-15T09:51:05;1.55;;;1.08;;
45326;SDS011;31062;49.678;24.560;2023-04-15T09:53:53;1.42;;;0.80;;
45326;SDS011;31062;49.678;24.560;2023-04-15T09:56:41;3.72;;;1.35;;
45326;SDS011;31062;49.678;24.560;2023-04-15T09:59:26;0.95;;;0.47;;
45326;SDS011;31062;49.678;24.560;2023-04-15T10:02:12;1.48;;;1.38;;
45326;SDS011;31062;49.678;24.560;2023-04-15T10:04:58;0.55;;;0.55;;
45326;SDS011;31062;49.678;24.560;2023-04-15T10:07:44;0.52;;;0.50;;
45326;SDS011;31062;49.678;24.560;2023-04-15T10:10:30;0.73;;;0.73;;
45326;SDS011;31062;49.678;24.560;2023-04-15T10:13:19;1.20;;;1.00;;
45326;SDS011;31062;49.678;24.560;2023-04-15T10:16:13;0.85;;;0.73;;
45326;SDS011;31062;49.678;24.560;2023-04-15T10:19:00;0.93;;;0.60;;
45326;SDS011;31062;49.678;24.560;2023-04-15T10:21:47;2.47;;;0.95;;
45326;SDS011;31062;49.678;24.560;2023-04-15T10:24:34;2.35;;;1.17;;
45326;SDS011;31062;49.678;24.560;2023-04-15T10:27:22;1.38;;;0.47;;
45326;SDS011;31062;49.678;24.560;2023-04-15T10:30:07;1.65;;;0.60;;
45326;SDS011;31062;49.678;24.560;2023-04-15T10:32:53;2.97;;;0.80;;
45326;SDS011;31062;49.678;24.560;2023-04-15T10:35:41;1.23;;;0.75;;
45326;SDS011;31062;49.678;24.560;2023-04-15T10:41:22;0.40;;;0.40;;
45326;SDS011;31062;49.678;24.560;2023-04-15T10:44:10;0.63;;;0.55;;
45326;SDS011;31062;49.678;24.560;2023-04-15T10:46:57;0.70;;;0.70;;
45326;SDS011;31062;49.678;24.560;2023-04-15T10:49:44;0.70;;;0.70;;
45326;SDS011;31062;49.678;24.560;2023-04-15T10:52:34;2.75;;;1.80;;
45326;SDS011;31062;49.678;24.560;2023-04-15T10:55:25;1.55;;;0.57;;
45326;SDS011;31062;49.678;24.560;2023-04-15T10:58:11;2.00;;;0.90;;
45326;SDS011;31062;49.678;24.560;2023-04-15T11:00:59;1.05;;;0.80;;
45326;SDS011;31062;49.678;24.560;2023-04-15T11:03:46;1.23;;;1.00;;
45326;SDS011;31062;49.678;24.560;2023-04-15T11:06:43;0.50;;;0.50;;
45326;SDS011;31062;49.678;24.560;2023-04-15T11:09:30;0.35;;;0.35;;
45326;SDS011;31062;49.678;24.560;2023-04-15T11:12:17;0.73;;;0.60;;
45326;SDS011;31062;49.678;24.560;2023-04-15T11:18:28;1.30;;;1.20;;
45326;SDS011;31062;49.678;24.560;2023-04-15T11:21:15;5.18;;;0.55;;
45326;SDS011;31062;49.678;24.560;2023-04-15T11:24:01;3.08;;;0.55;;
45326;SDS011;31062;49.678;24.560;2023-04-15T11:26:48;1.08;;;0.60;;
45326;SDS011;31062;49.678;24.560;2023-04-15T11:29:36;0.65;;;0.50;;
45326;SDS011;31062;49.678;24.560;2023-04-15T11:32:21;0.77;;;0.60;;
45326;SDS011;31062;49.678;24.560;2023-04-15T11:35:07;0.70;;;0.60;;
45326;SDS011;31062;49.678;24.560;2023-04-15T11:37:53;1.00;;;0.70;;
45326;SDS011;31062;49.678;24.560;2023-04-15T11:40:40;0.98;;;0.88;;
45326;SDS011;31062;49.678;24.560;2023-04-15T11:43:30;2.50;;;1.20;;
45326;SDS011;31062;49.678;24.560;2023-04-15T11:46:18;1.55;;;0.55;;
45326;SDS011;31062;49.678;24.560;2023-04-15T11:49:05;2.30;;;0.43;;
45326;SDS011;31062;49.678;24.560;2023-04-15T11:51:50;0.93;;;0.75;;
45326;SDS011;31062;49.678;24.560;2023-04-15T11:54:36;0.60;;;0.60;;
45326;SDS011;31062;49.678;24.560;2023-04-15T11:57:22;1.27;;;0.68;;
45326;SDS011;31062;49.678;24.560;2023-04-15T12:00:15;1.13;;;0.77;;
45326;SDS011;31062;49.678;24.560;2023-04-15T12:06:09;1.35;;;0.95;;
45326;SDS011;31062;49.678;24.560;2023-04-15T12:11:56;0.82;;;0.82;;
45326;SDS011;31062;49.678;24.560;2023-04-15T12:14:42;1.02;;;0.90;;
45326;SDS011;31062;49.678;24.560;2023-04-15T12:17:28;2.35;;;0.65;;
45326;SDS011;31062;49.678;24.560;2023-04-15T12:20:42;0.63;;;0.40;;
45326;SDS011;31062;49.678;24.560;2023-04-15T12:23:28;1.75;;;0.50;;
45326;SDS011;31062;49.678;24.560;2023-04-15T12:26:14;1.65;;;0.98;;
45326;SDS011;31062;49.678;24.560;2023-04-15T12:29:00;1.27;;;0.95;;
45326;SDS011;31062;49.678;24.560;2023-04-15T12:31:47;0.98;;;0.80;;
45326;SDS011;31062;49.678;24.560;2023-04-15T12:34:54;0.52;;;0.50;;
45326;SDS011;31062;49.678;24.560;2023-04-15T12:37:39;1.00;;;0.73;;
45326;SDS011;31062;49.678;24.560;2023-04-15T12:40:25;1.42;;;0.80;;
45326;SDS011;31062;49.678;24.560;2023-04-15T12:43:11;2.03;;;0.43;;
45326;SDS011;31062;49.678;24.560;2023-04-15T12:45:56;0.73;;;0.60;;
45326;SDS011;31062;49.678;24.560;2023-04-15T12:48:42;3.20;;;0.82;;
45326;SDS011;31062;49.678;24.560;2023-04-15T12:51:27;1.13;;;0.68;;
45326;SDS011;31062;49.678;24.560;2023-04-15T12:54:12;0.50;;;0.50;;
45326;SDS011;31062;49.678;24.560;2023-04-15T12:57:01;3.58;;;0.65;;
45326;SDS011;31062;49.678;24.560;2023-04-15T12:59:53;1.00;;;0.90;;
45326;SDS011;31062;49.678;24.560;2023-04-15T13:02:42;1.33;;;1.00;;
45326;SDS011;31062;49.678;24.560;2023-04-15T13:05:29;2.25;;;0.65;;
45326;SDS011;31062;49.678;24.560;2023-04-15T13:08:15;2.25;;;0.77;;
45326;SDS011;31062;49.678;24.560;2023-04-15T13:11:01;0.63;;;0.60;;
45326;SDS011;31062;49.678;24.560;2023-04-15T13:13:47;0.77;;;0.75;;
45326;SDS011;31062;49.678;24.560;2023-04-15T13:16:33;1.73;;;1.10;;
45326;SDS011;31062;49.678;24.560;2023-04-15T13:19:18;1.15;;;1.05;;
45326;SDS011;31062;49.678;24.560;2023-04-15T13:22:04;1.83;;;1.50;;
45326;SDS011;31062;49.678;24.560;2023-04-15T13:24:51;0.75;;;0.75;;
45326;SDS011;31062;49.678;24.560;2023-04-15T13:27:37;2.58;;;0.50;;
45326;SDS011;31062;49.678;24.560;2023-04-15T13:30:22;1.30;;;0.90;;
45326;SDS011;31062;49.678;24.560;2023-04-15T13:33:08;1.60;;;1.15;;
45326;SDS011;31062;49.678;24.560;2023-04-15T13:35:54;5.07;;;1.30;;
45326;SDS011;31062;49.678;24.560;2023-04-15T13:38:41;3.30;;;1.05;;
45326;SDS011;31062;49.678;24.560;2023-04-15T13:41:27;1.40;;;1.30;;
45326;SDS011;31062;49.678;24.560;2023-04-15T13:44:12;0.52;;;0.52;;
45326;SDS011;31062;49.678;24.560;2023-04-15T13:46:58;1.13;;;1.02;;
45326;SDS011;31062;49.678;24.560;2023-04-15T13:49:44;0.80;;;0.60;;
45326;SDS011;31062;49.678;24.560;2023-04-15T13:52:29;3.42;;;0.90;;
45326;SDS011;31062;49.678;24.560;2023-04-15T13:55:15;1.23;;;0.75;;
45326;SDS011;31062;49.678;24.560;2023-04-15T13:58:04;0.55;;;0.50;;
45326;SDS011;31062;49.678;24.560;2023-04-15T14:00:50;0.70;;;0.70;;
45326;SDS011;31062;49.678;24.560;2023-04-15T14:03:36;2.15;;;0.60;;
45326;SDS011;31062;49.678;24.560;2023-04-15T14:06:22;1.65;;;0.63;;
45326;SDS011;31062;49.678;24.560;2023-04-15T14:09:08;1.88;;;1.60;;
45326;SDS011;31062;49.678;24.560;2023-04-15T14:11:54;1.15;;;0.93;;
45326;SDS011;31062;49.678;24.560;2023-04-15T14:14:40;0.80;;;0.80;;
45326;SDS011;31062;49.678;24.560;2023-04-15T14:17:25;0.77;;;0.60;;
45326;SDS011;31062;49.678;24.560;2023-04-15T14:20:11;0.98;;;0.73;;
45326;SDS011;31062;49.678;24.560;2023-04-15T14:23:00;2.10;;;0.70;;
45326;SDS011;31062;49.678;24.560;2023-04-15T14:25:46;0.77;;;0.70;;
45326;SDS011;31062;49.678;24.560;2023-04-15T14:28:32;7.43;;;1.15;;
45326;SDS011;31062;49.678;24.560;2023-04-15T14:31:18;3.20;;;1.00;;
45326;SDS011;31062;49.678;24.560;2023-04-15T14:34:03;1.23;;;0.77;;
45326;SDS011;31062;49.678;24.560;2023-04-15T14:36:50;2.95;;;2.38;;
45326;SDS011;31062;49.678;24.560;2023-04-15T14:39:37;2.92;;;2.47;;
45326;SDS011;31062;49.678;24.560;2023-04-15T14:42:22;3.70;;;3.15;;
45326;SDS011;31062;49.678;24.560;2023-04-15T14:45:08;5.93;;;3.80;;
45326;SDS011;31062;49.678;24.560;2023-04-15T14:47:55;1.58;;;1.48;;
45326;SDS011;31062;49.678;24.560;2023-04-15T14:50:42;1.33;;;1.23;;
45326;SDS011;31062;49.678;24.560;2023-04-15T14:53:28;1.45;;;1.08;;
45326;SDS011;31062;49.678;24.560;2023-04-15T14:56:14;2.95;;;1.73;;
45326;SDS011;31062;49.678;24.560;2023-04-15T14:59:00;5.63;;;3.05;;
45326;SDS011;31062;49.678;24.560;2023-04-15T15:01:46;3.33;;;2.53;;
45326;SDS011;31062;49.678;24.560;2023-04-15T15:04:33;4.18;;;1.42;;
45326;SDS011;31062;49.678;24.560;2023-04-15T15:07:25;1.95;;;1.70;;
45326;SDS011;31062;49.678;24.560;2023-04-15T15:10:11;4.00;;;2.55;;
45326;SDS011;31062;49.678;24.560;2023-04-15T15:12:58;4.97;;;2.45;;
45326;SDS011;31062;49.678;24.560;2023-04-15T15:15:44;8.40;;;2.33;;
45326;SDS011;31062;49.678;24.560;2023-04-15T15:18:30;7.13;;;3.28;;
45326;SDS011;31062;49.678;24.560;2023-04-15T15:21:18;2.05;;;1.65;;
45326;SDS011;31062;49.678;24.560;2023-04-15T15:24:06;2.53;;;1.50;;
45326;SDS011;31062;49.678;24.560;2023-04-15T15:26:53;1.98;;;1.55;;
45326;SDS011;31062;49.678;24.560;2023-04-15T15:29:39;1.80;;;1.70;;
45326;SDS011;31062;49.678;24.560;2023-04-15T15:32:24;5.50;;;4.20;;
45326;SDS011;31062;49.678;24.560;2023-04-15T15:35:11;10.70;;;9.20;;
45326;SDS011;31062;49.678;24.560;2023-04-15T15:37:58;7.53;;;5.75;;
45326;SDS011;31062;49.678;24.560;2023-04-15T15:40:45;7.60;;;3.33;;
45326;SDS011;31062;49.678;24.560;2023-04-15T15:43:31;3.47;;;1.50;;
45326;SDS011;31062;49.678;24.560;2023-04-15T15:46:17;2.05;;;1.00;;
45326;SDS011;31062;49.678;24.560;2023-04-15T15:49:03;1.75;;;1.65;;
45326;SDS011;31062;49.678;24.560;2023-04-15T15:51:49;2.80;;;1.15;;
45326;SDS011;31062;49.678;24.560;2023-04-15T15:54:35;4.20;;;3.60;;
45326;SDS011;31062;49.678;24.560;2023-04-15T15:57:22;7.65;;;5.57;;
45326;SDS011;31062;49.678;24.560;2023-04-15T16:00:08;2.85;;;2.47;;
45326;SDS011;31062;49.678;24.560;2023-04-15T16:02:57;2.95;;;1.60;;
45326;SDS011;31062;49.678;24.560;2023-04-15T16:05:46;2.30;;;1.50;;
45326;SDS011;31062;49.678;24.560;2023-04-15T16:08:32;1.77;;;1.60;;
45326;SDS011;31062;49.678;24.560;2023-04-15T16:11:17;4.13;;;2.88;;
45326;SDS011;31062;49.678;24.560;2023-04-15T16:14:03;2.72;;;1.92;;
45326;SDS011;31062;49.678;24.560;2023-04-15T16:16:49;4.90;;;3.72;;
45326;SDS011;31062;49.678;24.560;2023-04-15T16:19:35;3.25;;;2.92;;
45326;SDS011;31062;49.678;24.560;2023-04-15T16:22:21;6.82;;;3.85;;
45326;SDS011;31062;49.678;24.560;2023-04-15T16:25:07;7.22;;;4.20;;
45326;SDS011;31062;49.678;24.560;2023-04-15T16:27:53;7.47;;;2.67;;
45326;SDS011;31062;49.678;24.560;2023-04-15T16:30:53;3.25;;;1.40;;
45326;SDS011;31062;49.678;24.560;2023-04-15T16:33:40;2.30;;;1.77;;
45326;SDS011;31062;49.678;24.560;2023-04-15T16:36:25;2.30;;;1.70;;
45326;SDS011;31062;49.678;24.560;2023-04-15T16:39:11;1.92;;;1.10;;
45326;SDS011;31062;49.678;24.560;2023-04-15T16:41:58;2.13;;;1.10;;
45326;SDS011;31062;49.678;24.560;2023-04-15T16:44:45;2.35;;;1.00;;
45326;SDS011;31062;49.678;24.560;2023-04-15T16:47:31;1.35;;;1.05;;